Time;durP1;ratioP1;P1;durP2;ratioP2;P2;SDS_P1;SDS_P2;PMS_P1;PMS_P2;Temp;Humidity;BMP_temperature;BMP_pressure;BME280_temperature;BME280_humidity;BME280_pressure;Samples;Min_cycle;Max_cycle;Signal;HPM_P1;HPM_P2
2022/09/11 00:00:37;;;;;;;36.80;26.23;;;;;;;14.13;100.00;101623.59;5034658;28;20054;-59
2022/09/11 00:03:02;;;;;;;35.95;25.60;;;;;;;14.14;100.00;101632.75;5034015;28;20041;-58
2022/09/11 00:05:29;;;;;;;36.30;25.05;;;;;;;14.10;100.00;101637.31;5034227;28;20029;-58
2022/09/11 00:07:55;;;;;;;34.22;24.80;;;;;;;14.12;100.00;101630.28;5034560;28;20025;-59
2022/09/11 00:10:23;;;;;;;35.45;26.02;;;;;;;14.08;100.00;101634.00;5034134;28;20048;-59
2022/09/11 00:12:48;;;;;;;38.38;27.20;;;;;;;14.01;100.00;101632.47;5034408;28;20029;-58
2022/09/11 00:15:14;;;;;;;35.80;25.55;;;;;;;14.00;100.00;101628.03;5034055;28;20452;-59
2022/09/11 00:17:39;;;;;;;36.55;25.63;;;;;;;13.98;100.00;101621.16;5033962;28;20495;-60
2022/09/11 00:20:05;;;;;;;35.20;25.52;;;;;;;13.95;100.00;101616.19;5034190;28;20021;-59
2022/09/11 00:22:30;;;;;;;35.67;26.10;;;;;;;13.90;100.00;101622.69;5034162;28;20037;-59
2022/09/11 00:24:58;;;;;;;36.75;26.38;;;;;;;13.87;100.00;101626.06;5033841;28;20028;-58
2022/09/11 00:27:23;;;;;;;37.55;26.85;;;;;;;13.89;100.00;101624.63;5033958;28;20037;-59
2022/09/11 00:29:48;;;;;;;37.63;25.70;;;;;;;13.84;100.00;101624.75;5033909;28;20463;-58
2022/09/11 00:32:14;;;;;;;37.53;26.25;;;;;;;13.83;100.00;101625.88;5033691;28;20025;-58
2022/09/11 00:34:40;;;;;;;37.85;26.98;;;;;;;13.78;100.00;101634.34;5033633;28;20033;-58
2022/09/11 00:37:05;;;;;;;38.28;26.70;;;;;;;13.77;100.00;101624.34;5033652;28;20026;-59
2022/09/11 00:39:31;;;;;;;39.30;27.80;;;;;;;13.75;100.00;101625.75;5033606;28;20040;-57
2022/09/11 00:41:57;;;;;;;39.30;27.23;;;;;;;13.71;100.00;101626.41;5033395;28;20485;-58
2022/09/11 00:44:22;;;;;;;38.38;27.67;;;;;;;13.70;100.00;101621.97;5032590;28;20032;-57
2022/09/11 00:46:52;;;;;;;38.03;27.45;;;;;;;13.70;100.00;101626.69;5033153;28;20037;-59
2022/09/11 00:49:39;;;;;;;40.75;29.20;;;;;;;13.66;100.00;101623.69;5033346;28;20470;-59
2022/09/11 00:52:11;;;;;;;39.58;27.92;;;;;;;13.63;100.00;101624.34;5033510;28;20029;-58
2022/09/11 00:54:44;;;;;;;41.75;28.27;;;;;;;13.68;100.00;101631.75;5033348;28;20037;-58
2022/09/11 00:57:09;;;;;;;39.40;29.17;;;;;;;13.68;100.00;101629.78;5033328;28;20032;-58
2022/09/11 00:59:40;;;;;;;40.63;29.17;;;;;;;13.63;100.00;101629.91;5031807;28;20018;-57
2022/09/11 01:02:11;;;;;;;43.00;29.35;;;;;;;13.59;100.00;101623.28;5033244;28;20044;-58
2022/09/11 01:04:36;;;;;;;43.45;29.13;;;;;;;13.65;100.00;101633.16;5033021;28;20033;-57
2022/09/11 01:07:03;;;;;;;41.10;29.00;;;;;;;13.60;100.00;101644.41;5031904;28;20025;-56
2022/09/11 01:09:29;;;;;;;39.47;28.80;;;;;;;13.59;100.00;101641.94;5032132;28;20037;-58
2022/09/11 01:12:15;;;;;;;42.65;30.17;;;;;;;13.56;100.00;101652.53;5032912;28;20040;-60
2022/09/11 01:14:46;;;;;;;41.55;29.45;;;;;;;13.57;100.00;101647.78;5032786;28;20068;-60
2022/09/11 01:17:33;;;;;;;42.65;30.58;;;;;;;13.52;100.00;101647.91;5032963;28;20450;-59
2022/09/11 01:20:17;;;;;;;43.72;31.10;;;;;;;13.49;100.00;101648.50;5032728;28;20037;-59
2022/09/11 01:23:13;;;;;;;40.42;29.90;;;;;;;13.45;100.00;101655.81;5032381;28;20059;-59
2022/09/11 01:26:17;;;;;;;42.65;29.67;;;;;;;13.41;100.00;101650.06;5032935;28;20021;-60
2022/09/11 01:28:54;;;;;;;42.10;30.38;;;;;;;13.36;100.00;101647.31;5032594;28;20432;-59
2022/09/11 01:31:25;;;;;;;43.10;30.48;;;;;;;13.28;100.00;101646.06;5032593;28;20033;-59
2022/09/11 01:34:01;;;;;;;44.08;30.88;;;;;;;13.36;100.00;101662.06;5032531;28;20033;-60
2022/09/11 01:36:33;;;;;;;43.13;30.52;;;;;;;13.35;100.00;101654.84;5032210;28;20437;-58
2022/09/11 01:39:01;;;;;;;43.78;31.23;;;;;;;13.37;100.00;101660.91;5032473;28;20500;-59
2022/09/11 01:41:32;;;;;;;45.58;31.48;;;;;;;13.39;100.00;101661.44;5030583;28;20477;-59
2022/09/11 01:44:03;;;;;;;44.35;31.23;;;;;;;13.35;100.00;101654.00;5032242;28;20029;-60
2022/09/11 01:46:34;;;;;;;47.85;32.63;;;;;;;13.38;100.00;101661.75;5032054;28;20030;-60
2022/09/11 01:49:12;;;;;;;44.83;31.48;;;;;;;13.33;100.00;101659.03;5032079;28;20500;-59
2022/09/11 01:51:39;;;;;;;45.42;31.15;;;;;;;13.40;100.00;101667.84;5032224;28;20040;-57
2022/09/11 01:54:11;;;;;;;49.25;33.97;;;;;;;13.36;100.00;101669.53;5032346;28;20029;-58
2022/09/11 01:56:43;;;;;;;46.50;34.13;;;;;;;13.29;100.00;101669.94;5032151;28;20057;-58
2022/09/11 01:59:13;;;;;;;48.60;34.25;;;;;;;13.28;100.00;101679.41;5031322;28;20029;-58
2022/09/11 02:01:44;;;;;;;46.10;33.38;;;;;;;13.20;100.00;101667.03;5031882;28;20029;-59
2022/09/11 02:04:14;;;;;;;45.53;31.13;;;;;;;13.22;100.00;101677.84;5032090;28;20079;-58
2022/09/11 02:06:47;;;;;;;48.63;34.25;;;;;;;13.13;100.00;101666.59;5031856;28;20022;-59
2022/09/11 02:09:19;;;;;;;50.80;35.53;;;;;;;13.21;100.00;101676.19;5032024;28;20055;-57
2022/09/11 02:11:48;;;;;;;48.30;34.08;;;;;;;13.06;100.00;101655.88;5031890;28;20030;-57
2022/09/11 02:14:22;;;;;;;49.03;33.40;;;;;;;13.12;100.00;101670.53;5031382;28;20044;-58
2022/09/11 02:16:59;;;;;;;50.70;34.35;;;;;;;13.14;100.00;101665.47;5032021;28;20025;-58
2022/09/11 02:19:26;;;;;;;48.88;34.60;;;;;;;13.13;100.00;101666.59;5031467;28;20096;-59
2022/09/11 02:21:52;;;;;;;51.63;34.50;;;;;;;13.09;100.00;101660.81;5031934;28;20101;-58
2022/09/11 02:24:21;;;;;;;47.65;34.35;;;;;;;13.03;100.00;101661.22;5031595;28;20536;-58
2022/09/11 02:26:51;;;;;;;49.88;33.70;;;;;;;13.00;100.00;101661.81;5031434;28;20047;-60
2022/09/11 02:29:17;;;;;;;51.20;35.75;;;;;;;12.98;100.00;101662.13;5032068;28;20029;-60
2022/09/11 02:31:43;;;;;;;49.83;34.08;;;;;;;12.98;100.00;101675.19;5031972;28;20030;-59
2022/09/11 02:34:12;;;;;;;46.75;34.17;;;;;;;12.86;100.00;101668.13;5030761;28;20144;-58
2022/09/11 02:37:09;;;;;;;51.45;34.70;;;;;;;12.91;100.00;101679.19;5032023;28;20033;-58
2022/09/11 02:40:10;;;;;;;50.47;34.50;;;;;;;12.90;100.00;101685.84;5032140;28;20025;-59
2022/09/11 02:42:36;;;;;;;50.70;35.33;;;;;;;12.92;100.00;101685.53;5032092;28;20056;-59
2022/09/11 02:45:18;;;;;;;49.87;33.43;;;;;;;12.85;100.00;101677.59;5031824;28;20072;-57
2022/09/11 02:48:01;;;;;;;47.38;34.00;;;;;;;12.82;100.00;101678.22;5030335;28;20287;-59
2022/09/11 02:50:39;;;;;;;48.35;32.55;;;;;;;12.70;100.00;101681.44;5031875;28;20135;-58
2022/09/11 02:53:10;;;;;;;49.63;35.50;;;;;;;12.74;100.00;101699.13;5031853;28;20211;-58
2022/09/11 02:56:02;;;;;;;46.28;33.55;;;;;;;12.71;100.00;101687.81;5031790;28;20036;-59
2022/09/11 02:58:43;;;;;;;45.90;32.28;;;;;;;12.64;100.00;101680.69;5031511;28;20025;-58
2022/09/11 03:01:08;;;;;;;46.63;33.60;;;;;;;12.58;100.00;101684.66;5031312;28;20088;-59
2022/09/11 03:03:42;;;;;;;45.67;33.35;;;;;;;12.49;100.00;101686.44;5031636;28;20410;-59
2022/09/11 03:06:09;;;;;;;;;;;;;;;12.55;100.00;101696.38;5031723;28;20475;-59
2022/09/11 03:08:35;;;;;;;45.10;31.83;;;;;;;12.46;100.00;101692.63;5031263;28;19913;-58
2022/09/11 03:11:00;;;;;;;47.67;32.33;;;;;;;12.44;100.00;101703.19;5031619;28;20386;-59
2022/09/11 03:13:25;;;;;;;45.00;32.80;;;;;;;12.43;100.00;101704.28;5031704;28;20466;-60
2022/09/11 03:15:51;;;;;;;49.10;33.80;;;;;;;12.42;100.00;101706.22;5031482;28;20033;-60
2022/09/11 03:18:16;;;;;;;49.78;34.38;;;;;;;12.41;100.00;101701.84;5040937;28;20475;-59
2022/09/11 03:20:48;;;;;;;48.50;34.03;;;;;;;12.39;100.00;101706.00;5051131;28;20036;-60
2022/09/11 03:23:14;;;;;;;51.08;34.83;;;;;;;12.38;100.00;101702.41;5051557;28;20104;-60
2022/09/11 03:25:40;;;;;;;50.78;34.95;;;;;;;12.38;100.00;101702.41;5051603;28;20151;-61
2022/09/11 03:28:06;;;;;;;50.45;35.65;;;;;;;12.39;100.00;101697.69;5050607;28;20086;-58
2022/09/11 03:30:32;;;;;;;49.92;35.60;;;;;;;12.37;100.00;101694.41;5033302;28;20116;-59
2022/09/11 03:32:57;;;;;;;50.47;34.45;;;;;;;12.35;100.00;101694.69;5051307;28;20040;-59
2022/09/11 03:35:24;;;;;;;52.72;35.38;;;;;;;12.35;100.00;101704.97;5051159;28;20104;-58
2022/09/11 03:37:49;;;;;;;47.65;31.38;;;;;;;12.30;100.00;101698.34;5051416;28;20029;-58
2022/09/11 03:40:15;;;;;;;49.88;33.17;;;;;;;12.30;100.00;101692.78;5051226;28;20456;-59
2022/09/11 03:42:40;;;;;;;50.88;36.13;;;;;;;12.27;100.00;101701.72;5051325;28;20461;-59
2022/09/11 03:45:06;;;;;;;50.92;36.05;;;;;;;12.29;100.00;101704.19;5051036;28;20127;-59
2022/09/11 03:47:31;;;;;;;56.35;38.40;;;;;;;12.35;100.00;101705.78;5054693;28;20102;-60
2022/09/11 03:49:56;;;;;;;52.10;36.03;;;;;;;12.33;100.00;101710.78;5054656;28;20074;-59
2022/09/11 03:52:22;;;;;;;55.78;36.95;;;;;;;12.32;100.00;101707.19;5054613;28;20439;-58
2022/09/11 03:54:47;;;;;;;54.50;36.72;;;;;;;12.31;100.00;101705.53;5054592;28;20021;-58
2022/09/11 03:57:13;;;;;;;58.28;37.72;;;;;;;12.33;100.00;101711.63;5054522;28;20029;-57
2022/09/11 03:59:38;;;;;;;51.20;35.35;;;;;;;12.29;100.00;101706.97;5054643;28;20044;-59
2022/09/11 04:02:03;;;;;;;54.70;36.35;;;;;;;12.31;100.00;101713.06;5054562;28;20441;-58
2022/09/11 04:04:28;;;;;;;55.53;37.65;;;;;;;12.32;100.00;101709.97;5054589;28;20033;-58
2022/09/11 04:06:54;;;;;;;57.70;36.78;;;;;;;12.33;100.00;101708.00;5054357;28;20021;-59
2022/09/11 04:09:20;;;;;;;53.17;36.28;;;;;;;12.30;100.00;101708.63;5054373;28;20342;-59
2022/09/11 04:11:45;;;;;;;55.08;35.95;;;;;;;12.26;100.00;101711.16;5054552;28;20078;-58
2022/09/11 04:14:10;;;;;;;50.88;34.63;;;;;;;12.23;100.00;101716.50;5054350;28;20028;-58
2022/09/11 04:16:36;;;;;;;53.85;35.95;;;;;;;12.21;100.00;101725.09;5054226;28;20098;-58
2022/09/11 04:19:01;;;;;;;50.58;34.05;;;;;;;12.13;100.00;101720.19;5053933;28;20135;-58
2022/09/11 04:21:28;;;;;;;48.90;34.20;;;;;;;12.07;100.00;101719.44;5054483;28;20481;-59
2022/09/11 04:23:59;;;;;;;49.72;33.95;;;;;;;11.95;100.00;101713.44;5054202;28;20029;-58
2022/09/11 04:26:26;;;;;;;47.95;32.70;;;;;;;11.91;100.00;101710.41;5054469;28;20031;-59
2022/09/11 04:28:52;;;;;;;50.08;33.17;;;;;;;11.91;100.00;101709.59;5053952;28;20075;-59
2022/09/11 04:31:19;;;;;;;48.80;32.63;;;;;;;11.83;100.00;101699.97;5053915;28;20033;-59
2022/09/11 04:33:44;;;;;;;47.30;32.10;;;;;;;11.86;100.00;101719.63;5053703;28;20032;-59
2022/09/11 04:36:20;;;;;;;45.17;31.77;;;;;;;11.90;100.00;101711.56;5053755;28;20032;-59
2022/09/11 04:38:46;;;;;;;46.75;32.33;;;;;;;11.87;100.00;101720.47;5053668;28;20539;-60
2022/09/11 04:41:13;;;;;;;45.63;31.30;;;;;;;11.86;100.00;101730.72;5053213;28;20436;-59
2022/09/11 04:43:40;;;;;;;45.10;30.25;;;;;;;11.86;100.00;101721.56;5053191;28;20021;-59
2022/09/11 04:46:16;;;;;;;52.05;31.08;;;;;;;11.81;100.00;101713.28;5053421;28;20036;-57
2022/09/11 04:48:46;;;;;;;53.80;33.35;;;;;;;11.81;100.00;101714.13;5053505;28;20032;-60
2022/09/11 04:51:20;;;;;;;54.35;32.38;;;;;;;11.91;100.00;101726.25;5035573;28;20388;-58
2022/09/11 04:53:46;;;;;;;50.28;30.92;;;;;;;11.93;100.00;101730.38;5053596;28;20028;-59
2022/09/11 04:56:12;;;;;;;54.30;32.90;;;;;;;11.91;100.00;101727.06;5053611;28;20020;-58
2022/09/11 04:58:38;;;;;;;59.42;33.88;;;;;;;11.94;100.00;101717.34;5052139;28;20501;-62
2022/09/11 05:01:15;;;;;;;57.65;33.80;;;;;;;11.98;100.00;101732.28;5053394;28;20037;-59
2022/09/11 05:03:42;;;;;;;69.65;33.65;;;;;;;11.97;100.00;101719.50;5053227;28;20031;-58
2022/09/11 05:06:10;;;;;;;57.60;30.33;;;;;;;11.93;100.00;101713.72;5053270;28;20029;-59
2022/09/11 05:08:36;;;;;;;87.10;31.90;;;;;;;11.95;100.00;101724.53;5052115;28;20497;-60
2022/09/11 05:11:05;;;;;;;57.45;30.73;;;;;;;11.94;100.00;101715.38;5051178;28;20036;-58
2022/09/11 05:13:34;;;;;;;58.50;31.10;;;;;;;11.94;100.00;101718.16;5052173;28;20448;-60
2022/09/11 05:16:04;;;;;;;65.95;31.65;;;;;;;11.97;100.00;101727.81;5034855;28;20078;-60
2022/09/11 05:18:30;;;;;;;65.32;30.45;;;;;;;11.98;100.00;101730.34;5052625;28;20049;-59
2022/09/11 05:21:03;;;;;;;53.25;28.45;;;;;;;12.02;100.00;101742.50;5052853;28;20036;-60
2022/09/11 05:23:30;;;;;;;63.77;28.73;;;;;;;12.01;100.00;101753.91;5053015;28;20029;-61
2022/09/11 05:26:00;;;;;;;66.55;29.10;;;;;;;12.01;100.00;101749.16;5052656;28;20635;-59
2022/09/11 05:28:27;;;;;;;62.58;29.45;;;;;;;12.02;100.00;101758.31;5052729;28;20454;-60
2022/09/11 05:30:53;;;;;;;74.30;29.90;;;;;;;12.03;100.00;101768.31;5052892;28;20017;-62
2022/09/11 05:33:22;;;;;;;65.43;31.08;;;;;;;12.08;100.00;101767.41;5052711;28;20111;-61
2022/09/11 05:35:49;;;;;;;93.88;33.13;;;;;;;12.06;100.00;101761.34;5034546;28;20504;-60
2022/09/11 05:38:15;;;;;;;82.88;32.45;;;;;;;12.10;100.00;101767.94;5052320;28;20037;-60
2022/09/11 05:40:50;;;;;;;71.43;32.03;;;;;;;12.03;100.00;101757.22;5052389;28;20025;-63
2022/09/11 05:43:16;;;;;;;95.70;32.40;;;;;;;12.14;100.00;101775.38;5052764;28;20025;-60
2022/09/11 05:45:44;;;;;;;96.65;32.20;;;;;;;12.19;100.00;101782.00;5052488;28;20053;-60
2022/09/11 05:48:09;;;;;;;104.53;33.15;;;;;;;12.23;100.00;101783.88;5034560;28;20048;-60
2022/09/11 05:50:36;;;;;;;125.18;33.60;;;;;;;12.24;100.00;101791.09;5052345;28;20485;-60
2022/09/11 05:53:02;;;;;;;97.53;32.20;;;;;;;12.24;100.00;101791.09;5052404;28;20374;-62
2022/09/11 05:55:27;;;;;;;93.15;31.17;;;;;;;12.31;100.00;101799.06;5034091;28;20059;-60
2022/09/11 05:57:53;;;;;;;79.95;30.05;;;;;;;12.36;100.00;101801.78;5052514;28;20036;-61
2022/09/11 06:00:19;;;;;;;54.90;28.80;;;;;;;12.47;100.00;101794.16;5052112;28;20087;-61
2022/09/11 06:02:45;;;;;;;54.78;26.55;;;;;;;12.49;100.00;101800.22;5052300;28;20056;-61
2022/09/11 06:05:10;;;;;;;59.75;25.83;;;;;;;12.50;100.00;101801.88;5052005;28;20064;-61
2022/09/11 06:07:36;;;;;;;64.22;28.25;;;;;;;12.50;100.00;101801.06;5051979;28;20025;-60
2022/09/11 06:10:01;;;;;;;66.63;27.55;;;;;;;12.47;100.00;101808.03;5056150;28;20033;-60
2022/09/11 06:12:27;;;;;;;63.47;26.52;;;;;;;12.42;100.00;101819.19;5067139;28;20475;-60
2022/09/11 06:14:53;;;;;;;60.05;26.13;;;;;;;12.36;100.00;101823.97;5071945;28;20029;-61
2022/09/11 06:17:19;;;;;;;59.75;26.10;;;;;;;12.38;100.00;101823.66;5071571;28;20433;-61
2022/09/11 06:19:44;;;;;;;71.18;28.45;;;;;;;12.47;100.00;101821.91;5072117;28;20536;-61
2022/09/11 06:22:10;;;;;;;80.00;27.67;;;;;;;12.55;100.00;101828.75;5071972;28;20035;-61
2022/09/11 06:24:35;;;;;;;65.28;26.70;;;;;;;12.62;100.00;101815.34;5071940;28;20020;-61
2022/09/11 06:27:00;;;;;;;72.70;27.65;;;;;;;12.64;100.00;101826.97;5072095;28;20025;-61
2022/09/11 06:29:26;;;;;;;59.78;27.63;;;;;;;12.68;100.00;101818.88;5071897;28;20449;-60
2022/09/11 06:31:53;;;;;;;78.63;26.55;;;;;;;12.62;100.00;101816.19;5071445;28;20020;-61
2022/09/11 06:34:21;;;;;;;56.10;27.23;;;;;;;12.68;100.00;101811.41;5071774;28;20028;-60
2022/09/11 06:36:47;;;;;;;59.58;24.70;;;;;;;12.83;100.00;101817.88;5053651;28;20547;-60
2022/09/11 06:39:12;;;;;;;53.80;25.05;;;;;;;12.79;100.00;101806.53;5071557;28;20430;-61
2022/09/11 06:41:38;;;;;;;60.05;26.35;;;;;;;12.92;100.00;101825.25;5071341;28;20082;-61
2022/09/11 06:44:03;;;;;;;70.15;27.50;;;;;;;12.97;100.00;101831.84;5071323;28;20066;-60
2022/09/11 06:46:29;;;;;;;55.15;26.15;;;;;;;13.00;100.00;101831.25;5071554;28;20024;-61
2022/09/11 06:48:54;;;;;;;67.70;26.42;;;;;;;12.98;100.00;101833.50;5071639;28;20365;-62
2022/09/11 06:51:22;;;;;;;49.58;25.55;;;;;;;13.05;100.00;101834.78;5070018;28;20032;-59
2022/09/11 06:53:51;;;;;;;50.47;25.88;;;;;;;13.12;100.00;101840.00;5071247;28;20515;-61
2022/09/11 06:56:17;;;;;;;49.55;25.10;;;;;;;13.19;100.00;101845.16;5071714;28;20032;-53
2022/09/11 06:58:44;;;;;;;60.53;26.48;;;;;;;13.28;100.00;101846.13;5071279;28;20017;-61
2022/09/11 07:01:14;;;;;;;45.47;25.95;;;;;;;13.40;100.00;101840.16;5070755;28;20029;-60
2022/09/11 07:03:44;;;;;;;64.40;27.88;;;;;;;13.45;100.00;101850.38;5071644;28;20056;-61
2022/09/11 07:06:13;;;;;;;55.55;28.58;;;;;;;13.53;100.00;101847.72;5037913;28;20090;-61
2022/09/11 07:08:38;;;;;;;53.00;29.40;;;;;;;13.65;100.00;101852.00;5058569;28;20403;-62
2022/09/11 07:11:05;;;;;;;67.18;31.05;;;;;;;13.71;100.00;101848.00;5071431;28;20021;-62
2022/09/11 07:13:31;;;;;;;64.50;31.20;;;;;;;13.73;100.00;101845.75;5071871;28;20442;-61
2022/09/11 07:16:05;;;;;;;67.65;30.90;;;;;;;13.82;100.00;101843.13;5071468;28;20023;-60
2022/09/11 07:18:35;;;;;;;58.13;29.70;;;;;;;13.89;100.00;101844.34;5067761;28;20045;-60
2022/09/11 07:21:04;;;;;;;54.42;29.73;;;;;;;13.99;100.00;101843.38;5072368;28;20031;-61
2022/09/11 07:23:29;;;;;;;53.42;29.38;;;;;;;14.03;100.00;101838.03;5074795;28;20021;-62
2022/09/11 07:25:54;;;;;;;63.00;29.25;;;;;;;14.04;100.00;101843.28;5074487;28;20322;-62
2022/09/11 07:28:20;;;;;;;65.28;29.38;;;;;;;14.13;100.00;101839.78;5075092;28;20028;-61
2022/09/11 07:30:45;;;;;;;60.90;28.80;;;;;;;14.17;100.00;101838.06;5074841;28;20392;-62
2022/09/11 07:33:10;;;;;;;52.38;29.17;;;;;;;14.23;100.00;101834.03;5075326;28;20078;-61
2022/09/11 07:35:36;;;;;;;68.45;28.80;;;;;;;14.28;100.00;101845.09;5075426;28;20036;-61
2022/09/11 07:38:02;;;;;;;58.25;29.13;;;;;;;14.32;100.00;101837.75;5075512;28;20020;-62
2022/09/11 07:40:27;;;;;;;55.05;27.40;;;;;;;14.34;100.00;101841.06;5074718;28;20033;-62
2022/09/11 07:42:52;;;;;;;51.42;27.27;;;;;;;14.42;100.00;101847.88;5074127;28;20028;-62
2022/09/11 07:45:18;;;;;;;57.60;28.63;;;;;;;14.43;100.00;101840.34;5074057;28;20341;-61
2022/09/11 07:47:43;;;;;;;47.65;27.08;;;;;;;14.55;100.00;101848.22;5074155;28;20086;-61
2022/09/11 07:50:09;;;;;;;46.65;26.92;;;;;;;14.63;100.00;101847.47;5074508;28;20043;-60
2022/09/11 07:52:35;;;;;;;43.35;25.10;;;;;;;14.65;100.00;101848.81;5074473;28;20115;-62
2022/09/11 07:55:00;;;;;;;41.70;26.13;;;;;;;14.76;100.00;101854.22;5074696;28;20040;-61
2022/09/11 07:57:26;;;;;;;40.65;27.90;;;;;;;14.86;100.00;101858.72;5074576;28;20029;-61
2022/09/11 07:59:52;;;;;;;38.42;26.27;;;;;;;14.96;100.00;101862.16;5074127;28;20032;-63
2022/09/11 08:02:17;;;;;;;41.47;27.33;;;;;;;14.90;100.00;101863.38;5074126;28;20174;-62
2022/09/11 08:04:43;;;;;;;40.50;26.65;;;;;;;14.96;100.00;101858.53;5074209;28;20056;-61
2022/09/11 08:07:08;;;;;;;39.35;25.38;;;;;;;15.07;100.00;101871.09;5056240;28;20025;-62
2022/09/11 08:09:33;;;;;;;39.53;26.90;;;;;;;15.15;100.00;101860.34;5074173;28;20464;-61
2022/09/11 08:12:00;;;;;;;46.30;30.30;;;;;;;15.14;100.00;101867.91;5073843;28;20029;-63
2022/09/11 08:14:26;;;;;;;42.42;28.33;;;;;;;15.17;100.00;101870.03;5074110;28;20016;-61
2022/09/11 08:16:52;;;;;;;41.83;28.60;;;;;;;15.19;100.00;101869.75;5073885;28;20563;-61
2022/09/11 08:19:21;;;;;;;45.55;29.98;;;;;;;15.21;100.00;101876.66;5073803;28;20123;-61
2022/09/11 08:21:46;;;;;;;43.70;29.75;;;;;;;15.34;100.00;101879.72;5058435;28;20029;-60
2022/09/11 08:24:12;;;;;;;44.70;30.83;;;;;;;15.39;100.00;101882.38;5031493;28;20021;-61
2022/09/11 08:26:38;;;;;;;46.70;32.05;;;;;;;15.45;100.00;101883.91;5031946;28;20084;-61
2022/09/11 08:29:05;;;;;;;46.47;31.35;;;;;;;15.54;100.00;101886.78;5031368;28;20037;-60
2022/09/11 08:31:32;;;;;;;43.47;30.52;;;;;;;15.64;100.00;101885.72;5031288;28;20029;-61
2022/09/11 08:33:58;;;;;;;44.97;31.63;;;;;;;15.74;100.00;101882.69;5031723;28;20068;-61
2022/09/11 08:36:24;;;;;;;42.28;29.77;;;;;;;15.87;100.00;101892.19;5031392;28;20061;-61
2022/09/11 08:38:51;;;;;;;40.92;28.77;;;;;;;16.04;100.00;101891.47;5031890;28;20470;-61
2022/09/11 08:41:22;;;;;;;42.75;29.42;;;;;;;16.14;100.00;101885.63;5031935;28;20025;-62
2022/09/11 08:43:52;;;;;;;42.85;32.10;;;;;;;16.15;100.00;101886.47;5031016;28;20156;-60
2022/09/11 08:46:22;;;;;;;39.42;28.42;;;;;;;16.35;100.00;101896.25;5031255;28;20069;-62
2022/09/11 08:49:16;;;;;;;38.97;28.65;;;;;;;16.43;100.00;101895.47;5031147;28;20405;-61
2022/09/11 08:51:43;;;;;;;41.90;29.27;;;;;;;16.57;99.19;101898.16;5030695;28;20041;-61
2022/09/11 08:54:26;;;;;;;39.95;29.77;;;;;;;16.65;98.65;101905.75;5030661;28;20029;-61
2022/09/11 08:56:52;;;;;;;37.42;27.85;;;;;;;16.77;97.11;101912.72;5030776;28;20057;-61
2022/09/11 08:59:30;;;;;;;39.22;28.63;;;;;;;16.76;97.18;101902.69;5030514;28;20029;-62
2022/09/11 09:02:08;;;;;;;39.28;28.88;;;;;;;16.78;96.71;101908.78;5031142;28;20021;-62
2022/09/11 09:04:49;;;;;;;37.85;29.25;;;;;;;16.81;97.18;101908.97;5031033;28;20069;-61
2022/09/11 09:07:25;;;;;;;39.35;29.75;;;;;;;16.85;98.38;101895.16;5031352;28;20026;-61
2022/09/11 09:09:59;;;;;;;39.78;29.77;;;;;;;16.82;96.61;101896.63;5031503;28;20068;-61
2022/09/11 09:12:31;;;;;;;39.67;28.90;;;;;;;16.91;98.50;101899.44;5031316;28;20026;-61
2022/09/11 09:15:34;;;;;;;41.53;30.75;;;;;;;17.09;98.46;101907.94;5028600;28;20087;-60
2022/09/11 09:18:16;;;;;;;37.67;29.88;;;;;;;17.14;94.90;101908.56;5029919;28;20493;-61
2022/09/11 09:20:48;;;;;;;37.90;29.00;;;;;;;17.05;94.32;101915.31;5030467;28;20094;-60
2022/09/11 09:23:23;;;;;;;37.15;28.67;;;;;;;17.21;95.89;101907.28;5030708;28;20045;-61
2022/09/11 09:25:51;;;;;;;38.13;28.83;;;;;;;17.34;93.70;101914.72;5030742;28;20048;-60
2022/09/11 09:28:45;;;;;;;36.83;28.10;;;;;;;17.49;95.35;101921.00;5030765;28;20021;-61
2022/09/11 09:31:16;;;;;;;38.00;28.27;;;;;;;17.42;94.25;101904.69;5031070;28;20091;-62
2022/09/11 09:33:53;;;;;;;37.97;28.05;;;;;;;17.56;92.30;101919.38;5030737;28;20040;-61
2022/09/11 09:36:21;;;;;;;36.50;27.35;;;;;;;17.57;90.46;101920.97;5031003;28;20029;-61
2022/09/11 09:38:47;;;;;;;35.33;26.67;;;;;;;17.57;91.84;101912.59;5031185;28;20053;-61
2022/09/11 09:41:27;;;;;;;36.38;27.70;;;;;;;17.72;92.22;101913.28;5031085;28;20124;-61
2022/09/11 09:44:15;;;;;;;37.13;27.55;;;;;;;17.80;92.24;101900.44;5030530;28;20032;-61
2022/09/11 09:46:43;;;;;;;34.95;26.55;;;;;;;18.03;90.23;101912.31;5031528;28;20087;-61
2022/09/11 09:49:17;;;;;;;36.25;26.80;;;;;;;18.14;90.14;101899.56;5031180;28;20029;-62
2022/09/11 09:51:43;;;;;;;33.97;26.20;;;;;;;18.43;88.54;101919.63;5013260;28;20057;-61
2022/09/11 09:54:17;;;;;;;34.67;26.45;;;;;;;18.59;87.52;101909.50;5031216;28;20699;-62
2022/09/11 09:56:52;;;;;;;33.85;26.70;;;;;;;18.55;85.80;101900.16;5031004;28;20037;-61
2022/09/11 09:59:36;;;;;;;35.67;27.35;;;;;;;18.58;86.57;101907.06;5031184;28;20056;-62
2022/09/11 10:02:02;;;;;;;33.90;25.75;;;;;;;18.60;85.66;101913.16;5030688;28;20044;-61
2022/09/11 10:04:29;;;;;;;33.28;26.35;;;;;;;18.59;85.77;101915.13;5030831;28;20682;-62
2022/09/11 10:07:10;;;;;;;34.38;26.08;;;;;;;18.72;87.96;101910.44;5030598;28;20037;-61
2022/09/11 10:09:44;;;;;;;32.78;25.20;;;;;;;18.88;85.71;101913.50;5030779;28;20075;-62
2022/09/11 10:12:15;;;;;;;32.92;25.73;;;;;;;19.06;83.26;101910.63;5031051;28;20025;-62
2022/09/11 10:14:51;;;;;;;33.50;25.15;;;;;;;19.14;83.85;101906.97;5029694;28;20095;-61
2022/09/11 10:17:20;;;;;;;31.45;24.77;;;;;;;19.33;82.74;101914.94;5030459;28;20536;-61
2022/09/11 10:19:46;;;;;;;31.95;24.33;;;;;;;19.58;80.97;101913.09;5031182;28;20029;-61
2022/09/11 10:22:31;;;;;;;29.98;23.15;;;;;;;19.91;80.64;101923.56;5030987;28;20033;-59
2022/09/11 10:25:02;;;;;;;31.42;25.08;;;;;;;20.08;77.83;101918.97;5031010;28;20117;-60
2022/09/11 10:27:33;;;;;;;29.10;21.65;;;;;;;20.24;76.72;101907.91;5031016;28;20032;-61
2022/09/11 10:29:59;;;;;;;29.58;22.30;;;;;;;20.25;76.23;101915.16;5030704;28;20037;-60
2022/09/11 10:32:25;;;;;;;30.90;22.55;;;;;;;20.03;77.00;101905.94;5030963;28;20094;-61
2022/09/11 10:34:51;;;;;;;31.67;23.65;;;;;;;19.93;78.86;101914.84;5030680;28;20037;-61
2022/09/11 10:37:28;;;;;;;30.00;23.50;;;;;;;19.68;78.60;101911.06;5030002;28;20036;-61
2022/09/11 10:40:03;;;;;;;32.88;25.38;;;;;;;19.50;79.02;101914.00;5029661;28;20037;-63
2022/09/11 10:42:31;;;;;;;32.60;24.75;;;;;;;19.35;79.43;101911.78;5029472;28;20025;-61
2022/09/11 10:45:09;;;;;;;32.47;25.02;;;;;;;19.19;80.77;101909.59;5029270;28;20428;-61
2022/09/11 10:47:34;;;;;;;33.55;24.98;;;;;;;19.07;80.85;101901.91;5029620;28;20112;-60
2022/09/11 10:50:15;;;;;;;32.92;25.27;;;;;;;19.04;82.22;101910.16;5029647;28;20131;-61
2022/09/11 10:53:21;;;;;;;30.98;23.33;;;;;;;19.07;82.64;101907.53;5029641;28;20087;-62
2022/09/11 10:55:57;;;;;;;32.90;25.70;;;;;;;19.06;80.82;101917.09;5030882;28;20025;-61
2022/09/11 10:58:27;;;;;;;33.75;25.90;;;;;;;19.09;80.13;101904.38;5033734;28;20026;-61
2022/09/11 11:00:52;;;;;;;33.53;26.00;;;;;;;19.26;80.13;101911.84;5034100;28;20037;-60
2022/09/11 11:03:24;;;;;;;33.08;26.10;;;;;;;19.44;78.22;101913.38;5032545;28;20033;-62
2022/09/11 11:06:14;;;;;;;31.40;24.83;;;;;;;19.68;78.06;101911.84;5033623;28;20041;-62
2022/09/11 11:08:42;;;;;;;32.95;25.35;;;;;;;19.78;74.87;101907.84;5033855;28;20087;-63
2022/09/11 11:11:39;;;;;;;32.75;24.05;;;;;;;20.01;75.62;101908.31;5057233;28;20025;-61
2022/09/11 11:14:29;;;;;;;32.83;24.27;;;;;;;20.34;76.80;101913.06;5053527;28;20033;-62
2022/09/11 11:17:19;;;;;;;32.80;24.83;;;;;;;20.49;73.90;101908.78;5033178;28;20033;-61